Time;durP1;ratioP1;P1;durP2;ratioP2;P2;SDS_P1;SDS_P2;PMS_P1;PMS_P2;Temp;Humidity;BMP_temperature;BMP_pressure;BME280_temperature;BME280_humidity;BME280_pressure;Samples;Min_cycle;Max_cycle;Signal;HPM_P1;HPM_P2
2023/10/14 00:01:45;;;;;;;3.65;2.20;;;18.40;99.90;;;;;;10530894;28;20402;-65
2023/10/14 00:06:47;;;;;;;2.80;1.85;;;18.40;99.90;;;;;;10540886;28;20901;-66
2023/10/14 00:11:54;;;;;;;2.95;2.03;;;18.40;99.90;;;;;;10540974;28;20917;-66
2023/10/14 00:16:54;;;;;;;3.87;1.73;;;18.40;99.90;;;;;;10538865;28;20454;-66
2023/10/14 00:21:55;;;;;;;3.27;1.60;;;18.40;99.90;;;;;;10527026;28;20413;-66
2023/10/14 00:27:04;;;;;;;3.77;1.90;;;18.40;99.90;;;;;;10512964;28;20406;-65
2023/10/14 00:32:04;;;;;;;4.03;1.70;;;18.40;99.90;;;;;;10535913;28;20826;-67
2023/10/14 00:37:08;;;;;;;3.00;1.52;;;18.30;99.90;;;;;;10534071;28;20457;-65
2023/10/14 00:42:09;;;;;;;3.10;1.50;;;18.30;99.90;;;;;;10538306;28;20957;-67
2023/10/14 00:47:15;;;;;;;3.47;1.70;;;18.30;99.90;;;;;;10528736;28;20483;-65
2023/10/14 00:52:18;;;;;;;3.22;1.50;;;18.30;99.90;;;;;;10527218;28;20479;-65
2023/10/14 01:02:29;;;;;;;4.10;1.50;;;18.20;99.90;;;;;;10533953;28;20815;-67
2023/10/14 01:07:30;;;;;;;3.10;1.40;;;18.20;99.90;;;;;;10536538;28;20569;-66
2023/10/14 01:12:44;;;;;;;3.15;1.52;;;18.20;99.90;;;;;;10533097;28;20404;-66
2023/10/14 01:17:45;;;;;;;3.43;1.33;;;18.20;99.90;;;;;;10529863;28;20406;-65
2023/10/14 01:22:51;;;;;;;3.25;1.55;;;18.20;99.90;;;;;;10534261;28;20429;-64
2023/10/14 01:27:52;;;;;;;3.60;1.33;;;18.20;99.90;;;;;;10533036;28;20476;-66
2023/10/14 01:33:12;;;;;;;3.13;1.20;;;18.10;99.90;;;;;;10526011;28;20406;-65
2023/10/14 01:38:16;;;;;;;4.60;1.48;;;18.10;99.90;;;;;;10533339;28;20412;-65
2023/10/14 01:43:17;;;;;;;3.67;1.30;;;18.10;99.90;;;;;;10535341;28;20613;-65
2023/10/14 01:48:21;;;;;;;3.35;1.27;;;18.10;99.90;;;;;;10539581;28;20465;-66
2023/10/14 01:53:32;;;;;;;4.38;1.33;;;18.00;99.90;;;;;;10519613;28;21555;-66
2023/10/14 01:58:33;;;;;;;3.53;1.20;;;18.00;99.90;;;;;;10520474;28;20416;-67
2023/10/14 02:03:35;;;;;;;3.05;1.20;;;18.00;99.90;;;;;;10521186;28;20908;-66
2023/10/14 02:08:36;;;;;;;2.40;1.10;;;18.00;99.90;;;;;;10516622;28;20392;-66
2023/10/14 02:13:37;;;;;;;4.33;1.37;;;18.00;99.90;;;;;;10526994;28;20892;-66
2023/10/14 02:18:37;;;;;;;4.17;1.20;;;17.50;99.90;;;;;;10537245;28;20417;-63
2023/10/14 02:23:47;;;;;;;2.77;1.20;;;17.90;99.90;;;;;;10524367;28;20411;-66
2023/10/14 02:28:49;;;;;;;3.58;1.40;;;17.80;99.90;;;;;;10540553;28;20880;-66
2023/10/14 02:33:49;;;;;;;3.45;1.25;;;17.80;99.90;;;;;;10527706;28;20390;-66
2023/10/14 02:38:53;;;;;;;4.23;1.30;;;17.80;99.90;;;;;;10520485;28;20418;-65
2023/10/14 02:44:14;;;;;;;3.85;1.10;;;17.70;99.90;;;;;;10532075;28;20406;-66
2023/10/14 02:49:15;;;;;;;3.53;1.10;;;17.70;99.80;;;;;;10531929;28;20453;-66
2023/10/14 02:54:26;;;;;;;4.03;1.23;;;17.70;99.80;;;;;;10541022;28;20632;-64
2023/10/14 03:15:21;;;;;;;3.08;1.38;;;17.60;99.50;;;;;;10528517;28;20395;-66
2023/10/14 03:26:13;;;;;;;5.68;1.63;;;17.70;99.50;;;;;;10534803;28;20420;-66
2023/10/14 03:31:16;;;;;;;5.03;1.25;;;17.50;99.40;;;;;;10538344;28;20477;-65
2023/10/14 03:36:17;;;;;;;3.97;1.10;;;17.50;99.30;;;;;;10541214;28;20408;-65
2023/10/14 03:46:35;;;;;;;3.83;1.10;;;17.40;99.30;;;;;;10518781;28;20769;-66
2023/10/14 03:51:35;;;;;;;5.57;1.15;;;18.40;99.50;;;;;;10538431;28;20879;-66
2023/10/14 03:56:38;;;;;;;3.03;1.10;;;17.40;99.20;;;;;;10534467;28;20737;-66
2023/10/14 04:06:41;;;;;;;4.27;1.10;;;17.30;99.10;;;;;;10539566;28;20471;-66
2023/10/14 04:11:42;;;;;;;4.32;1.05;;;17.30;99.10;;;;;;10538160;28;20531;-65
2023/10/14 04:21:53;;;;;;;3.70;1.00;;;17.30;99.00;;;;;;10529707;28;20811;-67
2023/10/14 04:27:16;;;;;;;4.13;1.10;;;17.20;99.00;;;;;;10526905;28;20426;-66
2023/10/14 04:32:14;;;;;;;5.50;1.03;;;17.20;99.00;;;;;;10522838;28;20841;-66
2023/10/14 04:37:19;;;;;;;3.33;1.00;;;17.10;98.90;;;;;;10524095;28;20487;-66
2023/10/14 04:47:36;;;;;;;2.50;1.00;;;17.10;98.90;;;;;;10541382;28;20433;-64
2023/10/14 04:52:38;;;;;;;3.28;0.90;;;17.10;98.80;;;;;;10536423;28;20396;-65
2023/10/14 04:57:40;;;;;;;3.93;1.10;;;17.40;98.80;;;;;;10532714;28;20456;-66
2023/10/14 05:02:41;;;;;;;4.63;1.00;;;17.30;98.80;;;;;;10526817;28;20411;-66
2023/10/14 05:07:41;;;;;;;4.93;1.40;;;17.00;98.70;;;;;;10526375;28;21176;-65
2023/10/14 05:12:51;;;;;;;4.38;1.30;;;17.00;98.60;;;;;;10514511;28;20805;-66
2023/10/14 05:18:03;;;;;;;3.63;1.00;;;17.00;98.50;;;;;;10506429;28;20413;-64
2023/10/14 05:23:05;;;;;;;4.25;1.00;;;17.00;98.50;;;;;;10535338;28;20423;-65
2023/10/14 05:28:07;;;;;;;4.20;1.30;;;17.10;98.50;;;;;;10531954;28;20411;-66
2023/10/14 05:33:07;;;;;;;3.42;1.00;;;16.90;98.40;;;;;;10533938;28;20421;-66
2023/10/14 05:38:12;;;;;;;3.47;1.00;;;17.10;98.50;;;;;;10510931;28;20980;-64
2023/10/14 05:43:12;;;;;;;6.67;1.20;;;16.90;98.40;;;;;;10532014;28;20779;-66
2023/10/14 05:48:13;;;;;;;6.15;1.48;;;16.90;98.30;;;;;;10539811;28;20408;-67
2023/10/14 05:53:16;;;;;;;4.03;1.20;;;16.90;98.30;;;;;;10538755;28;20472;-66
2023/10/14 05:58:17;;;;;;;5.43;1.02;;;17.10;98.30;;;;;;10530110;28;20397;-66
2023/10/14 06:03:19;;;;;;;5.28;1.20;;;16.80;98.20;;;;;;10500397;28;20784;-68
2023/10/14 06:08:20;;;;;;;4.65;1.20;;;16.80;98.20;;;;;;10495577;28;20419;-65
2023/10/14 06:13:20;;;;;;;4.30;1.08;;;16.80;98.20;;;;;;10517019;28;20416;-64
2023/10/14 06:18:21;;;;;;;5.00;1.20;;;16.80;98.20;;;;;;10508475;28;20408;-66
2023/10/14 06:23:23;;;;;;;4.90;1.00;;;16.70;98.10;;;;;;10508416;28;20504;-67
2023/10/14 06:28:23;;;;;;;4.88;1.23;;;16.80;98.10;;;;;;10513843;28;20806;-65
2023/10/14 06:33:26;;;;;;;6.68;1.38;;;17.20;98.20;;;;;;10503805;28;20510;-67
2023/10/14 06:38:27;;;;;;;3.77;1.33;;;16.70;98.00;;;;;;10511465;28;20504;-66
2023/10/14 06:43:28;;;;;;;5.07;1.25;;;16.70;98.00;;;;;;10508848;28;20432;-68
2023/10/14 06:48:28;;;;;;;5.63;1.20;;;16.70;98.10;;;;;;10514591;28;20779;-66
2023/10/14 06:53:30;;;;;;;6.57;1.30;;;16.70;98.10;;;;;;10492839;28;20453;-66
2023/10/14 06:58:33;;;;;;;6.90;1.60;;;16.70;98.10;;;;;;10526407;28;20431;-67
2023/10/14 07:03:33;;;;;;;6.72;1.35;;;16.70;98.00;;;;;;10512714;28;20406;-66
2023/10/14 07:08:36;;;;;;;5.68;1.38;;;16.70;98.00;;;;;;10523041;28;20414;-67
2023/10/14 07:13:38;;;;;;;5.47;1.30;;;16.70;98.00;;;;;;10523979;28;20879;-66
2023/10/14 07:18:40;;;;;;;8.77;1.45;;;16.70;97.90;;;;;;10524415;28;20445;-67
2023/10/14 07:23:41;;;;;;;7.47;1.25;;;16.80;98.00;;;;;;10512816;28;20398;-68
2023/10/14 07:28:42;;;;;;;6.50;1.63;;;16.60;97.90;;;;;;10528181;28;20400;-67
2023/10/14 07:33:43;;;;;;;5.00;1.30;;;16.60;97.90;;;;;;10544439;28;20408;-66
2023/10/14 07:38:45;;;;;;;5.27;1.10;;;16.70;97.90;;;;;;10547233;28;20469;-65
2023/10/14 07:43:45;;;;;;;4.10;1.10;;;16.60;97.90;;;;;;10543473;28;20408;-69
2023/10/14 07:48:47;;;;;;;6.63;1.30;;;16.60;97.90;;;;;;10536488;28;20400;-66
2023/10/14 07:53:47;;;;;;;6.90;1.30;;;16.60;97.90;;;;;;10521238;28;20487;-67
2023/10/14 07:58:48;;;;;;;5.28;1.30;;;16.70;97.90;;;;;;10524840;28;20888;-67
2023/10/14 08:03:49;;;;;;;7.17;1.23;;;16.70;97.90;;;;;;10535133;28;20505;-66
2023/10/14 08:08:50;;;;;;;5.20;1.20;;;17.10;98.00;;;;;;10531811;28;20465;-67
2023/10/14 08:13:51;;;;;;;5.95;1.25;;;17.10;98.00;;;;;;10528926;28;20457;-68
2023/10/14 08:18:53;;;;;;;4.10;1.20;;;16.90;98.10;;;;;;10505156;28;20406;-67
2023/10/14 08:23:58;;;;;;;7.47;1.48;;;16.90;98.00;;;;;;10514517;28;20497;-67
2023/10/14 08:29:00;;;;;;;5.60;1.30;;;16.90;98.10;;;;;;10537622;28;20401;-68
2023/10/14 08:34:01;;;;;;;5.40;1.13;;;16.90;98.10;;;;;;10545650;28;20416;-68
2023/10/14 08:39:02;;;;;;;6.67;1.50;;;17.00;98.10;;;;;;10534052;28;20494;-68
2023/10/14 08:44:08;;;;;;;6.40;1.50;;;17.00;98.10;;;;;;10548503;28;20472;-68
2023/10/14 08:49:12;;;;;;;5.40;1.30;;;17.10;98.00;;;;;;10534405;28;20394;-67
2023/10/14 08:54:15;;;;;;;6.18;1.23;;;17.10;98.00;;;;;;10513300;28;20728;-68
2023/10/14 08:59:16;;;;;;;4.37;1.27;;;17.10;97.90;;;;;;10544406;28;20391;-68
2023/10/14 09:04:26;;;;;;;4.00;1.17;;;17.20;97.90;;;;;;10542233;28;20434;-67
2023/10/14 09:09:27;;;;;;;5.75;1.27;;;17.20;97.90;;;;;;10533668;28;20394;-67
2023/10/14 09:14:29;;;;;;;4.57;1.13;;;17.20;97.80;;;;;;10536276;28;20428;-68
2023/10/14 09:19:47;;;;;;;4.10;1.35;;;17.30;97.80;;;;;;10512308;28;20743;-68
2023/10/14 09:24:52;;;;;;;4.53;1.20;;;17.40;97.80;;;;;;10538123;28;20413;-68
2023/10/14 09:29:57;;;;;;;4.28;1.13;;;17.50;97.70;;;;;;10541078;28;20418;-68
2023/10/14 09:34:58;;;;;;;4.40;1.10;;;17.50;97.70;;;;;;10526927;28;20395;-67
2023/10/14 09:40:08;;;;;;;4.43;1.10;;;17.50;97.50;;;;;;10518684;28;20453;-68
2023/10/14 09:45:11;;;;;;;4.85;1.20;;;17.60;97.40;;;;;;10510303;28;20410;-68
2023/10/14 09:50:13;;;;;;;6.15;1.30;;;17.70;97.30;;;;;;10510869;28;20801;-67
2023/10/14 09:55:15;;;;;;;5.03;1.30;;;17.70;97.20;;;;;;10533083;28;20432;-66
2023/10/14 10:00:16;;;;;;;5.18;1.30;;;17.80;97.20;;;;;;10531761;28;20807;-67
2023/10/14 10:05:28;;;;;;;4.37;1.30;;;17.60;97.30;;;;;;10513326;28;20418;-68
2023/10/14 10:10:31;;;;;;;5.27;1.20;;;17.60;97.30;;;;;;10550316;28;20433;-67
2023/10/14 10:15:35;;;;;;;4.33;1.30;;;17.60;97.30;;;;;;10529863;28;20940;-68
2023/10/14 10:20:35;;;;;;;4.80;1.50;;;17.50;97.00;;;;;;10533384;28;20401;-67
2023/10/14 10:25:36;;;;;;;5.13;1.67;;;17.60;96.90;;;;;;10527267;28;20412;-68
2023/10/14 10:30:46;;;;;;;5.90;1.30;;;17.60;96.90;;;;;;10525018;28;20892;-67
2023/10/14 10:35:57;;;;;;;4.00;1.20;;;17.70;96.90;;;;;;10528346;28;20913;-67
2023/10/14 10:41:23;;;;;;;4.07;1.20;;;17.70;96.60;;;;;;10519112;28;20542;-66
2023/10/14 10:46:42;;;;;;;5.65;1.40;;;17.70;96.60;;;;;;10526155;28;20837;-67
2023/10/14 10:52:08;;;;;;;3.53;1.20;;;17.70;96.60;;;;;;10520206;28;20414;-67
2023/10/14 10:57:11;;;;;;;3.95;1.30;;;17.70;96.60;;;;;;10501445;28;20455;-66
2023/10/14 11:02:13;;;;;;;5.05;1.17;;;17.80;96.50;;;;;;10526422;28;20412;-68
2023/10/14 11:07:14;;;;;;;5.30;1.30;;;17.80;96.40;;;;;;10506692;28;20937;-67
2023/10/14 11:12:18;;;;;;;6.97;1.40;;;18.00;96.40;;;;;;10528524;28;20426;-67
2023/10/14 11:17:22;;;;;;;3.53;1.13;;;17.80;96.30;;;;;;10517589;28;20901;-68
2023/10/14 11:22:23;;;;;;;6.05;1.38;;;17.60;96.20;;;;;;10519644;28;20405;-66
2023/10/14 11:27:24;;;;;;;4.80;1.33;;;17.70;96.10;;;;;;10534603;28;20412;-66
2023/10/14 11:32:26;;;;;;;4.67;1.10;;;17.70;96.40;;;;;;10526692;28;20397;-68
2023/10/14 11:37:29;;;;;;;7.25;1.38;;;17.70;96.40;;;;;;10526840;28;20958;-66
2023/10/14 11:42:30;;;;;;;4.22;1.40;;;17.60;96.60;;;;;;10533301;28;20406;-66
2023/10/14 11:47:36;;;;;;;3.83;1.20;;;17.80;96.80;;;;;;10509836;28;20394;-69
2023/10/14 11:52:38;;;;;;;4.82;1.20;;;17.60;96.80;;;;;;10535201;28;20411;-68
2023/10/14 11:57:38;;;;;;;4.37;1.50;;;17.60;97.00;;;;;;10513447;28;20402;-67
2023/10/14 12:02:40;;;;;;;6.03;1.80;;;17.60;96.80;;;;;;10542562;28;20395;-67
2023/10/14 12:07:41;;;;;;;5.50;1.40;;;17.50;97.00;;;;;;10545517;28;20413;-68
2023/10/14 12:12:41;;;;;;;4.47;1.47;;;17.50;97.10;;;;;;10532400;28;20393;-69
2023/10/14 12:17:42;;;;;;;5.43;1.53;;;17.50;97.00;;;;;;10537691;28;20801;-68
2023/10/14 12:22:42;;;;;;;3.38;1.33;;;17.40;96.90;;;;;;10536000;28;20402;-67
2023/10/14 12:27:43;;;;;;;4.45;1.55;;;17.50;96.80;;;;;;10540929;28;20412;-67
2023/10/14 12:32:46;;;;;;;6.03;1.50;;;17.50;96.70;;;;;;10532986;28;20406;-65
2023/10/14 12:37:49;;;;;;;6.03;1.20;;;17.50;96.70;;;;;;10532000;28;20416;-68
2023/10/14 12:42:54;;;;;;;3.88;1.60;;;17.60;96.50;;;;;;10515104;28;20422;-66
2023/10/14 12:48:09;;;;;;;5.20;1.60;;;17.50;96.50;;;;;;10525676;28;20408;-66
2023/10/14 12:53:10;;;;;;;4.65;1.52;;;17.60;96.50;;;;;;10536611;28;20412;-68
2023/10/14 12:58:12;;;;;;;8.93;1.60;;;17.60;96.40;;;;;;10536558;28;20424;-69
2023/10/14 13:03:12;;;;;;;5.38;1.40;;;17.60;96.20;;;;;;10521005;28;20411;-66
2023/10/14 13:08:18;;;;;;;3.93;1.30;;;17.60;96.30;;;;;;10531742;28;20398;-67
2023/10/14 13:13:20;;;;;;;5.20;1.30;;;17.60;96.50;;;;;;10533780;28;20401;-66
2023/10/14 13:18:24;;;;;;;5.87;1.40;;;17.50;96.60;;;;;;10510086;28;20407;-71
2023/10/14 13:23:25;;;;;;;3.72;1.60;;;18.10;96.80;;;;;;10536222;28;20423;-67
2023/10/14 13:28:25;;;;;;;5.57;1.52;;;17.60;96.80;;;;;;10522326;28;20393;-67
2023/10/14 13:33:26;;;;;;;5.97;1.52;;;17.60;96.90;;;;;;10534570;28;20409;-65
2023/10/14 13:38:26;;;;;;;4.60;1.50;;;17.50;96.90;;;;;;10536132;28;20459;-65
2023/10/14 13:43:27;;;;;;;4.37;1.50;;;17.60;96.90;;;;;;10535583;28;20404;-66
2023/10/14 13:48:29;;;;;;;4.63;1.50;;;17.60;96.70;;;;;;10527929;28;20882;-66
2023/10/14 13:53:34;;;;;;;5.70;1.63;;;17.60;96.70;;;;;;10541827;28;20481;-67
2023/10/14 13:58:35;;;;;;;6.40;1.50;;;17.80;96.80;;;;;;10538659;28;20488;-66
2023/10/14 14:03:39;;;;;;;5.97;1.63;;;17.70;96.70;;;;;;10535798;28;21085;-67
2023/10/14 14:08:40;;;;;;;6.17;1.67;;;17.60;96.40;;;;;;10514621;28;20506;-65
2023/10/14 14:13:42;;;;;;;6.63;1.60;;;17.60;96.40;;;;;;10535636;28;20821;-66
2023/10/14 14:18:43;;;;;;;6.50;1.70;;;17.70;96.20;;;;;;10536204;28;20922;-65
2023/10/14 14:23:44;;;;;;;5.70;1.50;;;17.70;96.00;;;;;;10526468;28;20450;-67
2023/10/14 14:28:46;;;;;;;5.10;1.38;;;17.90;95.80;;;;;;10532455;28;20689;-66
2023/10/14 14:33:47;;;;;;;5.95;1.70;;;17.80;95.30;;;;;;10527751;28;20832;-65
2023/10/14 14:38:48;;;;;;;5.30;1.60;;;17.90;95.10;;;;;;10513245;28;20413;-66
2023/10/14 14:43:49;;;;;;;6.03;1.65;;;18.10;95.10;;;;;;10534212;28;20777;-65
2023/10/14 14:48:49;;;;;;;4.07;1.60;;;18.00;94.80;;;;;;10519907;28;20419;-66
2023/10/14 14:53:50;;;;;;;5.13;1.40;;;18.00;94.90;;;;;;10538445;28;20417;-66
2023/10/14 14:58:50;;;;;;;4.72;1.45;;;18.00;94.70;;;;;;10533292;28;20400;-66
2023/10/14 15:03:53;;;;;;;4.25;1.35;;;18.10;94.40;;;;;;10526195;28;20416;-65
2023/10/14 15:08:53;;;;;;;4.20;1.37;;;18.00;94.20;;;;;;10539978;28;20414;-67
2023/10/14 15:13:54;;;;;;;5.50;1.35;;;17.90;94.10;;;;;;10527983;28;20911;-66
2023/10/14 15:18:54;;;;;;;6.72;1.58;;;17.90;94.10;;;;;;10539700;28;20796;-66
2023/10/14 15:23:55;;;;;;;4.78;1.30;;;17.90;94.10;;;;;;10535893;28;20771;-67
2023/10/14 15:28:56;;;;;;;5.00;1.63;;;17.80;94.30;;;;;;10528473;28;20464;-66
2023/10/14 15:33:59;;;;;;;4.00;1.10;;;17.80;94.00;;;;;;10537482;28;20497;-66
2023/10/14 15:39:00;;;;;;;6.90;1.40;;;16.60;93.60;;;;;;10529653;28;20905;-66
2023/10/14 15:44:07;;;;;;;5.28;1.50;;;17.70;94.20;;;;;;10529939;28;20417;-66
2023/10/14 15:49:09;;;;;;;4.80;1.30;;;17.70;94.00;;;;;;10533815;28;20427;-66
2023/10/14 15:54:13;;;;;;;6.47;1.57;;;17.60;94.10;;;;;;10543640;28;20781;-65
2023/10/14 15:59:16;;;;;;;4.07;1.50;;;17.60;94.20;;;;;;10515659;28;20417;-66
2023/10/14 16:04:16;;;;;;;4.53;1.40;;;17.50;94.20;;;;;;10526176;28;21055;-66
2023/10/14 16:09:17;;;;;;;5.60;1.40;;;17.50;94.10;;;;;;10550022;28;20484;-66
2023/10/14 16:14:17;;;;;;;7.30;1.50;;;17.40;94.10;;;;;;10525916;28;20412;-65
2023/10/14 16:19:18;;;;;;;6.55;1.38;;;17.40;94.10;;;;;;10542088;28;20504;-66
2023/10/14 16:24:19;;;;;;;4.00;1.30;;;17.40;94.20;;;;;;10542891;28;20408;-66
2023/10/14 16:29:20;;;;;;;4.68;1.40;;;17.40;94.10;;;;;;10518830;28;20464;-64
2023/10/14 16:34:26;;;;;;;5.28;1.38;;;17.40;94.20;;;;;;10537490;28;20417;-66
2023/10/14 16:39:26;;;;;;;5.63;1.40;;;17.30;94.20;;;;;;10521648;28;20434;-66
2023/10/14 16:44:28;;;;;;;3.97;1.40;;;17.40;94.30;;;;;;10528250;28;20846;-65
2023/10/14 16:49:30;;;;;;;5.25;1.48;;;17.30;94.30;;;;;;10539332;28;20407;-66
2023/10/14 16:54:31;;;;;;;5.53;1.48;;;17.20;94.30;;;;;;10531836;28;20448;-66
2023/10/14 16:59:31;;;;;;;5.07;1.50;;;17.20;94.30;;;;;;10510500;28;20433;-66
2023/10/14 17:04:33;;;;;;;5.20;1.27;;;17.20;94.30;;;;;;10534227;28;20416;-65
2023/10/14 17:09:34;;;;;;;4.90;1.23;;;17.20;94.30;;;;;;10545462;28;20458;-66
2023/10/14 17:14:35;;;;;;;7.00;1.73;;;17.10;94.10;;;;;;10535249;28;20489;-65
2023/10/14 17:19:35;;;;;;;6.40;1.80;;;17.20;94.00;;;;;;10532303;28;20755;-66
2023/10/14 17:24:36;;;;;;;5.33;1.70;;;17.10;93.70;;;;;;10528761;28;20414;-66
2023/10/14 17:29:38;;;;;;;6.50;1.63;;;17.10;93.70;;;;;;10534093;28;20825;-66
2023/10/14 17:34:40;;;;;;;7.50;1.70;;;17.00;93.80;;;;;;10523163;28;20757;-67
2023/10/14 17:39:40;;;;;;;4.90;1.90;;;17.00;93.60;;;;;;10532125;28;20413;-65
2023/10/14 17:44:41;;;;;;;4.50;1.73;;;17.00;93.60;;;;;;10527580;28;20751;-67
2023/10/14 17:49:41;;;;;;;5.13;1.58;;;17.00;93.70;;;;;;10528883;28;20400;-66
2023/10/14 17:54:43;;;;;;;5.87;1.80;;;16.90;93.60;;;;;;10523355;28;20494;-65
2023/10/14 17:59:44;;;;;;;6.83;1.90;;;16.90;93.40;;;;;;10512090;28;20400;-66
2023/10/14 18:04:44;;;;;;;5.33;2.00;;;16.90;93.20;;;;;;10529103;28;21030;-66
2023/10/14 18:09:45;;;;;;;6.93;1.80;;;16.80;92.90;;;;;;10532734;28;20419;-66
2023/10/14 18:14:48;;;;;;;7.00;1.90;;;16.80;92.90;;;;;;10520955;28;20392;-67
2023/10/14 18:19:49;;;;;;;5.57;1.83;;;16.80;92.90;;;;;;10537163;28;20415;-66
2023/10/14 18:24:50;;;;;;;5.10;2.03;;;16.80;92.90;;;;;;10516396;28;20400;-66
2023/10/14 18:29:51;;;;;;;5.10;1.80;;;16.90;92.80;;;;;;10532471;28;20409;-66
2023/10/14 18:34:51;;;;;;;6.07;1.88;;;16.70;92.70;;;;;;10529464;28;20398;-66
2023/10/14 18:39:53;;;;;;;4.60;1.90;;;16.70;92.70;;;;;;10492139;28;20483;-66
2023/10/14 18:44:54;;;;;;;5.22;1.92;;;16.70;92.70;;;;;;10515273;28;20406;-66
2023/10/14 18:49:55;;;;;;;7.70;1.98;;;16.60;92.60;;;;;;10518963;28;20775;-66
2023/10/14 18:54:55;;;;;;;5.53;1.80;;;17.50;93.10;;;;;;10544001;28;20908;-66
2023/10/14 18:59:56;;;;;;;7.30;2.13;;;16.60;92.60;;;;;;10540967;28;20777;-65
2023/10/14 19:04:58;;;;;;;8.32;2.10;;;16.50;92.60;;;;;;10543611;28;20410;-66
2023/10/14 19:09:59;;;;;;;6.75;1.95;;;16.80;92.70;;;;;;10538544;28;20451;-66
2023/10/14 19:14:59;;;;;;;6.83;1.90;;;16.50;92.60;;;;;;10542053;28;20392;-66
2023/10/14 19:20:00;;;;;;;10.37;2.33;;;16.50;92.50;;;;;;10513936;28;20452;-64
2023/10/14 19:25:01;;;;;;;9.15;2.10;;;16.50;92.50;;;;;;10543440;28;20435;-66
2023/10/14 19:30:06;;;;;;;8.07;2.03;;;16.50;92.40;;;;;;10533405;28;20394;-65
2023/10/14 19:35:08;;;;;;;4.68;1.67;;;16.40;92.40;;;;;;10529453;28;20466;-66
2023/10/14 19:40:16;;;;;;;6.03;1.80;;;16.40;92.40;;;;;;10530131;28;20470;-66
2023/10/14 19:45:17;;;;;;;6.57;1.70;;;16.40;92.30;;;;;;10526935;28;20918;-64
2023/10/14 19:50:19;;;;;;;8.43;1.90;;;16.40;92.40;;;;;;10515172;28;20772;-65
2023/10/14 19:55:22;;;;;;;7.38;2.10;;;15.30;92.10;;;;;;10520591;28;21037;-66
2023/10/14 20:00:27;;;;;;;5.95;1.90;;;16.30;92.50;;;;;;10527688;28;20436;-66
2023/10/14 20:05:35;;;;;;;8.13;1.95;;;16.30;92.40;;;;;;10512247;28;20905;-66
2023/10/14 20:10:39;;;;;;;5.97;1.90;;;15.40;92.20;;;;;;10522602;28;20395;-67
2023/10/14 20:15:40;;;;;;;7.60;2.07;;;16.50;92.50;;;;;;10517988;28;20410;-66
2023/10/14 20:20:43;;;;;;;8.00;2.00;;;16.20;92.50;;;;;;10521857;28;20423;-67
2023/10/14 20:25:43;;;;;;;7.05;1.88;;;16.20;92.40;;;;;;10525581;28;20940;-66
2023/10/14 20:30:49;;;;;;;8.30;1.98;;;16.30;92.40;;;;;;10538311;28;20417;-65
2023/10/14 20:35:51;;;;;;;6.82;2.05;;;16.20;92.40;;;;;;10523929;28;20416;-66
2023/10/14 20:40:51;;;;;;;4.83;1.60;;;16.20;92.40;;;;;;10538702;28;20468;-66
2023/10/14 20:45:52;;;;;;;7.35;1.67;;;16.10;92.40;;;;;;10543250;28;20427;-65
2023/10/14 20:50:53;;;;;;;4.37;1.60;;;16.30;92.40;;;;;;10532722;28;20749;-66
2023/10/14 20:55:53;;;;;;;7.07;1.77;;;16.30;92.40;;;;;;10543750;28;20479;-66
2023/10/14 21:00:59;;;;;;;7.40;1.80;;;16.10;92.40;;;;;;10528454;28;21020;-65
2023/10/14 21:06:05;;;;;;;5.60;1.87;;;16.00;92.30;;;;;;10516199;28;20470;-65
2023/10/14 21:11:10;;;;;;;5.43;1.57;;;16.00;92.30;;;;;;10515265;28;20800;-66
2023/10/14 21:16:11;;;;;;;6.40;1.60;;;16.00;92.30;;;;;;10507117;28;20399;-66
2023/10/14 21:21:16;;;;;;;4.53;1.40;;;16.90;92.50;;;;;;10525623;28;20771;-65
2023/10/14 21:26:16;;;;;;;5.65;1.50;;;15.90;92.20;;;;;;10497030;28;20923;-66
2023/10/14 21:31:17;;;;;;;7.03;1.93;;;15.90;92.20;;;;;;10518216;28;20394;-66
2023/10/14 21:36:18;;;;;;;6.33;1.43;;;15.90;92.20;;;;;;10516924;28;20443;-66
2023/10/14 21:41:18;;;;;;;4.47;1.60;;;15.90;92.20;;;;;;10504982;28;20480;-66
2023/10/14 21:46:22;;;;;;;4.87;1.20;;;15.80;92.20;;;;;;10515748;28;20796;-66
2023/10/14 21:51:22;;;;;;;6.82;1.50;;;15.80;92.30;;;;;;10512383;28;20404;-66
2023/10/14 21:56:23;;;;;;;4.17;1.30;;;15.80;92.30;;;;;;10517792;28;20460;-66
2023/10/14 22:01:23;;;;;;;5.00;1.40;;;15.80;92.30;;;;;;10516266;28;20432;-65
2023/10/14 22:06:24;;;;;;;4.63;1.40;;;16.00;92.40;;;;;;10536165;28;20412;-66
2023/10/14 22:11:25;;;;;;;5.27;1.53;;;15.70;92.40;;;;;;10511256;28;20414;-66
2023/10/14 22:16:26;;;;;;;4.13;1.38;;;15.70;92.40;;;;;;10534405;28;20902;-66
2023/10/14 22:21:30;;;;;;;4.47;1.20;;;15.70;92.50;;;;;;10518301;28;20422;-65
2023/10/14 22:26:34;;;;;;;3.97;1.10;;;15.70;92.50;;;;;;10532130;28;20411;-66
2023/10/14 22:31:35;;;;;;;4.07;1.25;;;15.70;92.60;;;;;;10524609;28;20422;-65
2023/10/14 22:36:37;;;;;;;4.37;1.03;;;15.60;92.60;;;;;;10515591;28;20414;-67
2023/10/14 22:41:38;;;;;;;3.42;1.00;;;15.60;92.60;;;;;;10530519;28;20415;-66
2023/10/14 22:46:39;;;;;;;2.97;1.03;;;15.60;92.50;;;;;;10521148;28;20468;-67
2023/10/14 22:51:41;;;;;;;2.45;0.85;;;15.60;92.60;;;;;;10526447;28;20798;-66
2023/10/14 22:56:41;;;;;;;2.93;0.83;;;15.70;92.60;;;;;;10517765;28;20410;-66
2023/10/14 23:01:42;;;;;;;1.73;0.80;;;15.50;92.60;;;;;;10518377;28;20427;-66
2023/10/14 23:06:43;;;;;;;2.70;1.00;;;15.50;92.50;;;;;;10517132;28;20445;-65
2023/10/14 23:11:44;;;;;;;2.10;0.70;;;15.50;92.50;;;;;;10527252;28;20397;-65
2023/10/14 23:16:45;;;;;;;2.80;0.80;;;15.90;92.60;;;;;;10535684;28;20439;-66
2023/10/14 23:21:45;;;;;;;3.90;1.00;;;15.50;92.40;;;;;;10536188;28;20412;-67
2023/10/14 23:26:46;;;;;;;1.40;0.80;;;15.40;92.40;;;;;;10533833;28;21004;-66
2023/10/14 23:31:47;;;;;;;2.57;0.70;;;15.40;92.40;;;;;;10523569;28;20400;-64
2023/10/14 23:36:48;;;;;;;1.93;0.63;;;16.00;92.50;;;;;;10532729;28;20532;-66
2023/10/14 23:41:49;;;;;;;1.73;0.60;;;15.40;92.40;;;;;;10529806;28;20418;-66
2023/10/14 23:46:49;;;;;;;2.17;0.60;;;15.40;92.40;;;;;;10528233;28;20426;-66
2023/10/14 23:51:50;;;;;;;2.10;0.60;;;15.40;92.50;;;;;;10538887;28;20402;-66
2023/10/14 23:56:54;;;;;;;1.93;0.60;;;15.50;92.50;;;;;;10536870;28;20392;-66
